Weather reports worldwide

Advertisment
Lorca, Spain (8426): temperature & dewpoint: 11.08.2019 15:00:00 - 17.08.2019 15:00:00 (CEST)Lorca, Spain (8426): wind speed & gusts: 11.08.2019 15:00:00 - 17.08.2019 15:00:00 (CEST)Lorca, Spain (8426): wind direction: 11.08.2019 15:00:00 - 17.08.2019 15:00:00 (CEST)Lorca, Spain (8426): precipitation: 11.08.2019 15:00:00 - 17.08.2019 15:00:00 (CEST)
Date & Time tt [°C] td [°C] ff [km/h] ff [kn] fx [km/h] fx [kn] dd rr [mm]
17.08.2019 15:00:00 35,3 16,1 10 5 22 12 SSW 0,0
17.08.2019 14:00:00 35,1 16,4 6 4 22 12 S -
17.08.2019 13:00:00 34,1 15,1 6 4 16 9 S 0,0
17.08.2019 12:00:00 31,9 16,2 4 2 11 6 SSW 0,0
17.08.2019 11:00:00 28,9 14,7 2 1 6 3 S 0,0
17.08.2019 10:00:00 24,1 16,6 0 0 4 2 W 0,0
17.08.2019 09:00:00 21,2 18,0 0 0 4 2 SW 0,0
17.08.2019 08:00:00 19,8 17,5 1 0 3 2 SE -
17.08.2019 07:00:00 19,9 17,3 0 0 4 2 NNE 0,0
17.08.2019 06:00:00 20,2 14,5 1 0 6 4 W 0,0
17.08.2019 05:00:00 20,6 14,7 2 1 5 3 N 0,0
17.08.2019 04:00:00 20,9 17,7 0 0 2 1 ENE 0,0
17.08.2019 03:00:00 22,4 20,7 0 0 4 2 E 0,0
17.08.2019 02:00:00 23,0 21,1 1 0 4 2 SW -
17.08.2019 01:00:00 23,3 20,7 0 0 2 1 N 0,0
17.08.2019 00:00:00 24,2 21,3 0 0 6 4 SSE 0,0
16.08.2019 23:00:00 25,0 21,1 2 1 8 5 SSE 0,0
16.08.2019 22:00:00 25,7 20,9 4 2 19 10 SW 0,0
16.08.2019 21:00:00 26,9 20,7 7 4 18 10 SSW 0,0
16.08.2019 20:00:00 29,7 17,2 10 5 22 12 SW -
16.08.2019 19:00:00 32,3 15,3 9 5 22 12 SSW 0,0
16.08.2019 18:00:00 33,4 16,3 11 6 23 13 SSW 0,0
16.08.2019 17:00:00 34,1 16,9 9 5 22 12 SSW 0,0
16.08.2019 16:00:00 34,7 17,5 9 5 19 10 S 0,0
16.08.2019 15:00:00 33,3 18,2 6 3 16 8 NE 0,0
16.08.2019 14:00:00 32,6 19,1 3 2 16 8 E -
16.08.2019 13:00:00 31,6 19,3 3 1 11 6 E 0,0
16.08.2019 12:00:00 29,5 17,7 3 1 11 6 ESE 0,0
16.08.2019 11:00:00 27,1 16,4 3 2 8 5 ENE 0,0
16.08.2019 10:00:00 23,5 14,5 3 2 10 5 NNE 0,0
16.08.2019 09:00:00 21,5 13,4 3 1 6 3 N 0,0
16.08.2019 08:00:00 19,4 12,4 2 1 7 4 NNE -
16.08.2019 07:00:00 19,2 12,2 1 0 5 3 NNW 0,0
16.08.2019 06:00:00 20,0 12,7 3 1 8 4 NE 0,0
16.08.2019 05:00:00 20,6 13,6 3 2 9 5 N 0,0
16.08.2019 04:00:00 21,0 14,4 0 0 3 2 NNW 0,0
16.08.2019 03:00:00 21,9 15,0 2 1 6 3 NNE 0,0
16.08.2019 02:00:00 21,9 16,1 0 0 3 1 ENE -
16.08.2019 01:00:00 22,8 15,9 0 0 6 3 SE 0,0
16.08.2019 00:00:00 24,0 15,5 0 0 5 3 SSW 0,0
15.08.2019 23:00:00 25,0 14,4 1 1 10 5 WSW 0,0
15.08.2019 22:00:00 26,5 13,9 3 2 15 8 SSW 0,0
15.08.2019 21:00:00 27,8 13,8 8 4 18 10 SW 0,0
15.08.2019 20:00:00 29,3 13,9 9 5 19 10 SSW -
15.08.2019 19:00:00 31,2 14,8 11 6 23 12 SW 0,0
15.08.2019 18:00:00 32,5 16,3 11 6 29 15 SSW 0,0
15.08.2019 17:00:00 32,5 15,5 14 8 26 14 SSW 0,0
15.08.2019 16:00:00 33,3 15,3 11 6 26 14 SSW 0,0
15.08.2019 15:00:00 33,2 15,7 13 7 26 14 SSW 0,0
15.08.2019 14:00:00 33,6 16,5 9 5 19 10 SSW -
15.08.2019 13:00:00 32,0 17,5 3 1 13 7 E 0,0
15.08.2019 12:00:00 30,3 17,7 1 1 9 5 SE 0,0
15.08.2019 11:00:00 26,7 19,3 3 1 9 5 E 0,0
15.08.2019 10:00:00 23,0 19,1 3 2 11 6 ENE 0,0
15.08.2019 09:00:00 21,4 17,2 5 3 11 6 NNE 0,0
15.08.2019 08:00:00 19,3 16,6 0 0 3 2 WNW -
15.08.2019 07:00:00 19,3 17,3 1 0 3 2 NE 0,0
15.08.2019 06:00:00 19,8 17,2 2 1 5 3 SSE 0,0
15.08.2019 05:00:00 20,7 18,8 2 1 5 3 NW 0,0
15.08.2019 04:00:00 20,7 18,1 0 0 3 1 NNW 0,0
15.08.2019 03:00:00 21,7 19,4 0 0 4 2 N 0,0
15.08.2019 02:00:00 22,4 19,8 0 0 4 2 WSW -
15.08.2019 01:00:00 23,0 20,0 1 1 9 5 WSW 0,0
15.08.2019 00:00:00 23,7 20,3 4 2 10 5 SSW 0,0
14.08.2019 23:00:00 23,9 19,8 8 4 13 7 SW 0,0
14.08.2019 22:00:00 24,9 19,1 3 2 16 9 S 0,0
14.08.2019 21:00:00 25,9 18,3 7 4 19 11 SSW 0,0
14.08.2019 20:00:00 27,8 17,6 9 5 21 12 SSW -
14.08.2019 19:00:00 29,5 18,0 13 7 22 12 SSW 0,0
14.08.2019 18:00:00 29,9 18,7 12 7 28 15 SW 0,0
14.08.2019 17:00:00 30,6 19,6 12 7 29 15 SSW 0,0
14.08.2019 16:00:00 30,6 18,7 11 6 26 14 SSW 0,0
14.08.2019 15:00:00 31,4 19,4 9 5 22 12 S 0,0
14.08.2019 14:00:00 30,4 19,4 8 5 19 10 SSW -
14.08.2019 13:00:00 29,1 19,7 8 4 16 8 SSW 0,0
14.08.2019 12:00:00 27,6 19,9 3 2 11 6 SE 0,0
14.08.2019 11:00:00 25,3 19,6 3 2 8 4 SSE 0,0
14.08.2019 10:00:00 22,9 19,6 1 0 7 4 S 0,0
14.08.2019 09:00:00 21,0 18,4 1 0 3 2 NE 0,0
14.08.2019 08:00:00 19,7 17,6 0 0 4 2 E -
14.08.2019 07:00:00 20,0 18,2 2 1 6 3 NNE 0,0
14.08.2019 06:00:00 20,3 18,2 1 0 4 2 NE 0,0
14.08.2019 05:00:00 20,7 18,6 0 0 2 1 E 0,0
14.08.2019 04:00:00 21,4 18,6 0 0 - - N -
14.08.2019 03:00:00 22,0 19,0 2 1 14 8 NE 0,0
14.08.2019 02:00:00 22,9 19,3 4 2 10 6 ENE -
14.08.2019 01:00:00 23,0 19,0 4 2 11 6 ENE 0,0
14.08.2019 00:00:00 23,6 19,1 4 2 14 8 ENE 0,0
13.08.2019 23:00:00 24,0 19,5 5 3 17 9 ENE 0,0
13.08.2019 22:00:00 24,8 19,4 1 1 9 5 ESE 0,0
13.08.2019 21:00:00 25,1 19,3 2 1 11 6 ESE 0,0
13.08.2019 20:00:00 25,9 19,3 2 1 11 6 E -
13.08.2019 19:00:00 27,2 19,6 3 1 12 6 ESE 0,0
13.08.2019 18:00:00 27,4 19,7 3 1 16 9 E 0,0
13.08.2019 17:00:00 28,1 20,1 4 2 19 11 ESE 0,0
13.08.2019 16:00:00 28,7 19,3 4 2 32 17 E 0,0
13.08.2019 15:00:00 30,6 20,8 6 4 27 15 E 0,0
13.08.2019 14:00:00 30,8 21,3 7 4 22 12 E -
13.08.2019 13:00:00 29,4 20,5 7 4 26 14 ENE 0,0
13.08.2019 12:00:00 27,0 19,8 9 5 26 14 ENE 0,0
13.08.2019 11:00:00 26,8 19,6 9 5 26 14 ENE 0,0
13.08.2019 10:00:00 25,1 18,5 11 6 29 16 NE 0,0
13.08.2019 09:00:00 24,0 17,9 12 6 23 12 NE 0,0
13.08.2019 08:00:00 23,4 18,3 5 3 10 6 ENE -
13.08.2019 07:00:00 23,1 18,0 0 0 4 2 ESE 0,0
13.08.2019 06:00:00 23,4 18,1 3 2 14 8 ENE 0,0
13.08.2019 05:00:00 23,4 19,3 6 4 13 7 NE 0,0
13.08.2019 04:00:00 23,0 20,1 3 2 9 5 NE 0,0
13.08.2019 03:00:00 23,2 20,5 2 1 14 8 ENE 0,0
13.08.2019 02:00:00 23,5 20,9 3 2 13 7 ENE -
13.08.2019 01:00:00 24,0 21,1 5 3 14 8 ENE 0,0
13.08.2019 00:00:00 24,8 21,5 3 1 13 7 E 0,0
12.08.2019 23:00:00 24,6 21,3 6 3 15 8 SW 0,0
12.08.2019 22:00:00 25,3 20,7 5 3 17 9 SW 0,0
12.08.2019 21:00:00 27,1 19,4 5 3 14 8 SSW 0,0
12.08.2019 20:00:00 28,3 19,5 6 4 18 10 SSW -
12.08.2019 19:00:00 29,1 19,7 8 4 19 10 S 0,0
12.08.2019 18:00:00 29,5 19,2 10 6 27 14 SSW 0,0
12.08.2019 17:00:00 30,7 15,5 10 5 23 12 S 0,0
12.08.2019 16:00:00 32,7 17,0 11 6 22 12 SSW 0,0
12.08.2019 15:00:00 33,9 13,4 6 3 22 12 SSE 0,0
12.08.2019 14:00:00 33,0 12,1 4 2 18 10 SE -
12.08.2019 13:00:00 34,0 13,5 3 2 20 11 E 0,0
12.08.2019 12:00:00 31,4 11,2 6 3 - - NNW -
12.08.2019 11:00:00 30,3 11,8 9 5 22 12 N 0,0
12.08.2019 10:00:00 27,2 9,9 10 6 27 15 NNW 0,0
12.08.2019 09:00:00 25,0 8,5 15 8 33 18 NNW 0,0
12.08.2019 08:00:00 24,3 8,3 11 6 34 19 NNW -
12.08.2019 07:00:00 24,8 8,7 13 7 27 14 NW 0,0
12.08.2019 06:00:00 25,5 9,3 13 7 29 16 NNW 0,0
12.08.2019 05:00:00 25,6 12,7 9 5 24 13 NW 0,0
12.08.2019 04:00:00 23,7 20,7 3 2 7 4 WSW 0,0
12.08.2019 03:00:00 24,2 20,9 0 0 4 2 NE 0,0
12.08.2019 02:00:00 24,9 21,0 0 0 8 4 NNE -
12.08.2019 01:00:00 25,7 20,5 3 1 8 4 NE 0,0
12.08.2019 00:00:00 26,9 20,3 1 1 8 4 E 0,0
11.08.2019 23:00:00 28,1 19,3 1 0 9 5 SE 0,0
11.08.2019 22:00:00 28,9 18,7 5 3 13 7 SW 0,0
11.08.2019 21:00:00 30,3 18,4 5 3 16 9 SSW 0,0
11.08.2019 20:00:00 33,1 20,3 5 3 16 9 ENE -
11.08.2019 19:00:00 34,2 19,8 4 2 15 8 S 0,0
11.08.2019 18:00:00 33,8 20,2 8 5 23 12 SSW 0,0
11.08.2019 17:00:00 34,1 21,2 10 5 26 14 SSW 0,0
11.08.2019 16:00:00 34,4 22,8 11 6 22 12 SSW 0,0
11.08.2019 15:00:00 35,9 21,0 5 3 20 11 ENE 0,0

tt = temperature
td = dewpoint
ff = wind speed
fx = gusts
dd = wind direction
rr = precipitation

Next stations